VTA weather

Newark Heath Airport
Newark, Ohio, United States

Public forecast

Using degrees Fahrenheit for public forecast. Weather courtesy of forecast.io.

Current aviation weather report (METAR) for Newark Heath Airport

Retrieved 2020/06/01 07:54 UTC (45 minutes ago):

KVTA 010754Z AUTO 00000KT 10SM CLR 07/04 A3031 RMK AO2 SLP265 T00670039

Closest aviation forecast (TAF) to Newark Heath Airport

Closest forecast is John Glenn Columbus International Airport, 19.8 nm (36.7 km) W. Retrieved 2020/06/01 06:27 UTC (2 hours ago):

TAF KCMH 010523Z 0106/0206 05003KT P6SM FEW250 FM011600 19006KT P6SM FEW250 FM020000 21007KT P6SM BKN120